sensor_id;sensor_type;location;lat;lon;timestamp;temperature;humidity
67752;DHT22;54551;51.068;5.826;2023-04-24T00:00:04;11.30;99.90
67752;DHT22;54551;51.068;5.826;2023-04-24T00:02:35;11.30;99.90
67752;DHT22;54551;51.068;5.826;2023-04-24T00:05:04;11.20;99.90
67752;DHT22;54551;51.068;5.826;2023-04-24T00:07:31;11.20;99.90
67752;DHT22;54551;51.068;5.826;2023-04-24T00:09:57;11.20;99.90
67752;DHT22;54551;51.068;5.826;2023-04-24T00:12:24;11.20;99.90
67752;DHT22;54551;51.068;5.826;2023-04-24T00:14:50;11.20;99.90
67752;DHT22;54551;51.068;5.826;2023-04-24T00:17:16;11.20;99.90
67752;DHT22;54551;51.068;5.826;2023-04-24T00:19:46;11.20;99.90
67752;DHT22;54551;51.068;5.826;2023-04-24T00:22:12;11.30;99.90
67752;DHT22;54551;51.068;5.826;2023-04-24T00:24:41;11.20;99.90
67752;DHT22;54551;51.068;5.826;2023-04-24T00:27:07;11.20;99.90
67752;DHT22;54551;51.068;5.826;2023-04-24T00:29:33;11.20;99.90
67752;DHT22;54551;51.068;5.826;2023-04-24T00:31:59;11.20;99.90
67752;DHT22;54551;51.068;5.826;2023-04-24T00:34:25;11.20;99.90
67752;DHT22;54551;51.068;5.826;2023-04-24T00:36:51;11.20;99.90
67752;DHT22;54551;51.068;5.826;2023-04-24T00:39:19;11.20;99.90
67752;DHT22;54551;51.068;5.826;2023-04-24T00:41:45;11.10;99.90
67752;DHT22;54551;51.068;5.826;2023-04-24T00:44:12;11.10;99.90
67752;DHT22;54551;51.068;5.826;2023-04-24T00:46:38;11.20;99.90
67752;DHT22;54551;51.068;5.826;2023-04-24T00:49:05;11.10;99.90
67752;DHT22;54551;51.068;5.826;2023-04-24T00:51:32;11.10;99.90
67752;DHT22;54551;51.068;5.826;2023-04-24T00:54:01;11.10;99.90
67752;DHT22;54551;51.068;5.826;2023-04-24T00:56:28;11.10;99.90
67752;DHT22;54551;51.068;5.826;2023-04-24T00:58:54;11.10;99.90
67752;DHT22;54551;51.068;5.826;2023-04-24T01:01:21;11.10;99.90
67752;DHT22;54551;51.068;5.826;2023-04-24T01:03:49;11.10;99.90
67752;DHT22;54551;51.068;5.826;2023-04-24T01:06:16;11.10;99.90
67752;DHT22;54551;51.068;5.826;2023-04-24T01:08:45;11.10;99.90
67752;DHT22;54551;51.068;5.826;2023-04-24T01:11:12;11.10;99.90
67752;DHT22;54551;51.068;5.826;2023-04-24T01:13:38;11.10;99.90
67752;DHT22;54551;51.068;5.826;2023-04-24T01:16:04;11.10;99.90
67752;DHT22;54551;51.068;5.826;2023-04-24T01:18:30;11.10;99.90
67752;DHT22;54551;51.068;5.826;2023-04-24T01:20:59;11.10;99.90
67752;DHT22;54551;51.068;5.826;2023-04-24T01:23:27;11.00;99.90
67752;DHT22;54551;51.068;5.826;2023-04-24T01:25:53;11.10;99.90
67752;DHT22;54551;51.068;5.826;2023-04-24T01:28:20;11.10;99.90
67752;DHT22;54551;51.068;5.826;2023-04-24T01:30:46;11.10;99.90
67752;DHT22;54551;51.068;5.826;2023-04-24T01:33:12;11.00;99.90
67752;DHT22;54551;51.068;5.826;2023-04-24T01:35:38;11.10;99.90
67752;DHT22;54551;51.068;5.826;2023-04-24T01:38:04;11.10;99.90
67752;DHT22;54551;51.068;5.826;2023-04-24T01:40:32;11.10;99.90
67752;DHT22;54551;51.068;5.826;2023-04-24T01:42:58;11.10;99.90
67752;DHT22;54551;51.068;5.826;2023-04-24T01:45:24;11.10;99.90
67752;DHT22;54551;51.068;5.826;2023-04-24T01:47:51;11.00;99.90
67752;DHT22;54551;51.068;5.826;2023-04-24T01:50:18;11.10;99.90
67752;DHT22;54551;51.068;5.826;2023-04-24T01:52:43;11.10;99.90
67752;DHT22;54551;51.068;5.826;2023-04-24T01:55:10;11.10;99.90
67752;DHT22;54551;51.068;5.826;2023-04-24T01:57:37;11.00;99.90
67752;DHT22;54551;51.068;5.826;2023-04-24T02:00:04;11.10;99.90
67752;DHT22;54551;51.068;5.826;2023-04-24T02:02:42;11.00;99.90
67752;DHT22;54551;51.068;5.826;2023-04-24T02:05:08;11.10;99.90
67752;DHT22;54551;51.068;5.826;2023-04-24T02:07:36;11.10;99.90
67752;DHT22;54551;51.068;5.826;2023-04-24T02:10:03;11.10;99.90
67752;DHT22;54551;51.068;5.826;2023-04-24T02:12:30;11.10;99.90
67752;DHT22;54551;51.068;5.826;2023-04-24T02:14:56;11.10;99.90
67752;DHT22;54551;51.068;5.826;2023-04-24T02:17:22;11.00;99.90
67752;DHT22;54551;51.068;5.826;2023-04-24T02:19:48;11.10;99.90
67752;DHT22;54551;51.068;5.826;2023-04-24T02:22:14;11.00;99.90
67752;DHT22;54551;51.068;5.826;2023-04-24T02:24:40;11.00;99.90
67752;DHT22;54551;51.068;5.826;2023-04-24T02:27:06;11.00;99.90
67752;DHT22;54551;51.068;5.826;2023-04-24T02:29:32;11.00;99.90
67752;DHT22;54551;51.068;5.826;2023-04-24T02:31:58;11.00;99.90
67752;DHT22;54551;51.068;5.826;2023-04-24T02:34:24;11.00;99.90
67752;DHT22;54551;51.068;5.826;2023-04-24T02:36:50;11.00;99.90
67752;DHT22;54551;51.068;5.826;2023-04-24T02:39:16;11.00;99.90
67752;DHT22;54551;51.068;5.826;2023-04-24T02:41:43;11.10;99.90
67752;DHT22;54551;51.068;5.826;2023-04-24T02:44:09;11.00;99.90
67752;DHT22;54551;51.068;5.826;2023-04-24T02:46:35;11.00;99.90
67752;DHT22;54551;51.068;5.826;2023-04-24T02:49:01;11.00;99.90
67752;DHT22;54551;51.068;5.826;2023-04-24T02:51:29;11.00;99.90
67752;DHT22;54551;51.068;5.826;2023-04-24T02:53:55;11.00;99.90
67752;DHT22;54551;51.068;5.826;2023-04-24T02:56:21;11.00;99.90
67752;DHT22;54551;51.068;5.826;2023-04-24T02:58:47;11.00;99.90
67752;DHT22;54551;51.068;5.826;2023-04-24T03:01:13;10.90;99.90
67752;DHT22;54551;51.068;5.826;2023-04-24T03:03:39;10.90;99.90
67752;DHT22;54551;51.068;5.826;2023-04-24T03:06:05;10.90;99.90
67752;DHT22;54551;51.068;5.826;2023-04-24T03:08:33;10.90;99.90
67752;DHT22;54551;51.068;5.826;2023-04-24T03:11:00;10.90;99.90
67752;DHT22;54551;51.068;5.826;2023-04-24T03:13:25;10.90;99.90
67752;DHT22;54551;51.068;5.826;2023-04-24T03:15:51;10.80;99.90
67752;DHT22;54551;51.068;5.826;2023-04-24T03:18:18;10.80;99.90
67752;DHT22;54551;51.068;5.826;2023-04-24T03:20:45;10.80;99.90
67752;DHT22;54551;51.068;5.826;2023-04-24T03:23:12;10.80;99.90
67752;DHT22;54551;51.068;5.826;2023-04-24T03:25:39;10.90;99.90
67752;DHT22;54551;51.068;5.826;2023-04-24T03:28:05;10.80;99.90
67752;DHT22;54551;51.068;5.826;2023-04-24T03:30:43;10.80;99.90
67752;DHT22;54551;51.068;5.826;2023-04-24T03:33:10;10.80;99.90
67752;DHT22;54551;51.068;5.826;2023-04-24T03:35:42;10.80;99.90
67752;DHT22;54551;51.068;5.826;2023-04-24T03:38:11;10.80;99.90
67752;DHT22;54551;51.068;5.826;2023-04-24T03:40:53;10.80;99.90
67752;DHT22;54551;51.068;5.826;2023-04-24T03:43:48;10.80;99.90
67752;DHT22;54551;51.068;5.826;2023-04-24T03:46:15;10.70;99.90
67752;DHT22;54551;51.068;5.826;2023-04-24T03:48:47;10.70;99.90
67752;DHT22;54551;51.068;5.826;2023-04-24T03:51:15;10.70;99.90
67752;DHT22;54551;51.068;5.826;2023-04-24T03:53:45;10.80;99.90
67752;DHT22;54551;51.068;5.826;2023-04-24T03:56:14;10.70;99.90
67752;DHT22;54551;51.068;5.826;2023-04-24T03:58:40;10.60;99.90
67752;DHT22;54551;51.068;5.826;2023-04-24T04:01:06;10.60;99.90
67752;DHT22;54551;51.068;5.826;2023-04-24T04:03:46;10.60;99.90
67752;DHT22;54551;51.068;5.826;2023-04-24T04:06:16;10.60;99.90
67752;DHT22;54551;51.068;5.826;2023-04-24T04:08:42;10.50;99.90
67752;DHT22;54551;51.068;5.826;2023-04-24T04:11:08;10.50;99.90
67752;DHT22;54551;51.068;5.826;2023-04-24T04:13:34;10.40;99.90
67752;DHT22;54551;51.068;5.826;2023-04-24T04:16:00;10.40;99.90
67752;DHT22;54551;51.068;5.826;2023-04-24T04:18:26;10.30;99.90
67752;DHT22;54551;51.068;5.826;2023-04-24T04:20:52;10.30;99.90
67752;DHT22;54551;51.068;5.826;2023-04-24T04:23:18;10.20;99.90
67752;DHT22;54551;51.068;5.826;2023-04-24T04:26:08;10.20;99.90
67752;DHT22;54551;51.068;5.826;2023-04-24T04:28:57;10.10;99.90
67752;DHT22;54551;51.068;5.826;2023-04-24T04:31:23;10.10;99.90
67752;DHT22;54551;51.068;5.826;2023-04-24T04:33:49;10.00;99.90
67752;DHT22;54551;51.068;5.826;2023-04-24T04:36:16;10.00;99.90
67752;DHT22;54551;51.068;5.826;2023-04-24T04:38:49;10.00;99.90
67752;DHT22;54551;51.068;5.826;2023-04-24T04:41:31;10.00;99.90
67752;DHT22;54551;51.068;5.826;2023-04-24T04:43:57;10.00;99.90
67752;DHT22;54551;51.068;5.826;2023-04-24T04:46:25;10.00;99.90
67752;DHT22;54551;51.068;5.826;2023-04-24T04:49:08;10.00;99.90
67752;DHT22;54551;51.068;5.826;2023-04-24T04:51:35;10.10;99.90
67752;DHT22;54551;51.068;5.826;2023-04-24T04:54:01;10.10;99.90
67752;DHT22;54551;51.068;5.826;2023-04-24T04:56:28;10.10;99.90
67752;DHT22;54551;51.068;5.826;2023-04-24T04:58:56;10.20;99.90
67752;DHT22;54551;51.068;5.826;2023-04-24T05:01:22;10.20;99.90
67752;DHT22;54551;51.068;5.826;2023-04-24T05:03:49;10.10;99.90
67752;DHT22;54551;51.068;5.826;2023-04-24T05:06:17;10.10;99.90
67752;DHT22;54551;51.068;5.826;2023-04-24T05:08:44;10.00;99.90
67752;DHT22;54551;51.068;5.826;2023-04-24T05:11:20;10.00;99.90
67752;DHT22;54551;51.068;5.826;2023-04-24T05:13:46;9.90;99.90
67752;DHT22;54551;51.068;5.826;2023-04-24T05:16:19;9.90;99.90
67752;DHT22;54551;51.068;5.826;2023-04-24T05:18:45;9.90;99.90
67752;DHT22;54551;51.068;5.826;2023-04-24T05:21:14;9.80;99.90
67752;DHT22;54551;51.068;5.826;2023-04-24T05:23:43;9.80;99.90
67752;DHT22;54551;51.068;5.826;2023-04-24T05:26:10;9.70;99.90
67752;DHT22;54551;51.068;5.826;2023-04-24T05:28:36;9.70;99.90
67752;DHT22;54551;51.068;5.826;2023-04-24T05:31:06;9.70;99.90
67752;DHT22;54551;51.068;5.826;2023-04-24T05:33:33;9.70;99.90
67752;DHT22;54551;51.068;5.826;2023-04-24T05:36:00;9.60;99.90
67752;DHT22;54551;51.068;5.826;2023-04-24T05:38:26;9.60;99.90
67752;DHT22;54551;51.068;5.826;2023-04-24T05:40:52;9.60;99.90
67752;DHT22;54551;51.068;5.826;2023-04-24T05:43:18;9.60;99.90
67752;DHT22;54551;51.068;5.826;2023-04-24T05:45:44;9.70;99.90
67752;DHT22;54551;51.068;5.826;2023-04-24T05:48:10;9.60;99.90
67752;DHT22;54551;51.068;5.826;2023-04-24T05:50:36;9.70;99.90
67752;DHT22;54551;51.068;5.826;2023-04-24T05:53:02;9.60;99.90
67752;DHT22;54551;51.068;5.826;2023-04-24T05:55:32;9.70;99.90
67752;DHT22;54551;51.068;5.826;2023-04-24T05:57:58;9.70;99.90
67752;DHT22;54551;51.068;5.826;2023-04-24T06:00:25;9.70;99.90
67752;DHT22;54551;51.068;5.826;2023-04-24T06:03:00;9.70;99.90
67752;DHT22;54551;51.068;5.826;2023-04-24T06:05:26;9.70;99.90
67752;DHT22;54551;51.068;5.826;2023-04-24T06:07:52;9.80;99.90
67752;DHT22;54551;51.068;5.826;2023-04-24T06:10:20;9.70;99.90
67752;DHT22;54551;51.068;5.826;2023-04-24T06:12:46;9.70;99.90
67752;DHT22;54551;51.068;5.826;2023-04-24T06:15:16;9.70;99.90
67752;DHT22;54551;51.068;5.826;2023-04-24T06:17:56;9.60;99.90
67752;DHT22;54551;51.068;5.826;2023-04-24T06:20:22;9.60;99.90
67752;DHT22;54551;51.068;5.826;2023-04-24T06:22:48;9.60;99.90
67752;DHT22;54551;51.068;5.826;2023-04-24T06:25:14;9.60;99.90
67752;DHT22;54551;51.068;5.826;2023-04-24T06:27:40;9.60;99.90
67752;DHT22;54551;51.068;5.826;2023-04-24T06:30:08;9.60;99.90
67752;DHT22;54551;51.068;5.826;2023-04-24T06:32:34;9.50;99.90
67752;DHT22;54551;51.068;5.826;2023-04-24T06:35:00;9.50;99.90
67752;DHT22;54551;51.068;5.826;2023-04-24T06:37:27;9.60;99.90
67752;DHT22;54551;51.068;5.826;2023-04-24T06:39:53;9.50;99.90
67752;DHT22;54551;51.068;5.826;2023-04-24T06:42:18;9.50;99.90
67752;DHT22;54551;51.068;5.826;2023-04-24T06:44:49;9.60;99.90
67752;DHT22;54551;51.068;5.826;2023-04-24T06:47:15;9.60;99.90
67752;DHT22;54551;51.068;5.826;2023-04-24T06:49:41;9.50;99.90
67752;DHT22;54551;51.068;5.826;2023-04-24T06:52:07;9.50;99.90
67752;DHT22;54551;51.068;5.826;2023-04-24T06:54:33;9.50;99.90
67752;DHT22;54551;51.068;5.826;2023-04-24T06:56:59;9.40;99.90
67752;DHT22;54551;51.068;5.826;2023-04-24T06:59:29;9.40;99.90
67752;DHT22;54551;51.068;5.826;2023-04-24T07:01:56;9.40;99.90
67752;DHT22;54551;51.068;5.826;2023-04-24T07:04:22;9.40;99.90
67752;DHT22;54551;51.068;5.826;2023-04-24T07:06:48;9.40;99.90
67752;DHT22;54551;51.068;5.826;2023-04-24T07:09:18;9.40;99.90
67752;DHT22;54551;51.068;5.826;2023-04-24T07:11:45;9.40;99.90
67752;DHT22;54551;51.068;5.826;2023-04-24T07:14:11;9.30;99.90
67752;DHT22;54551;51.068;5.826;2023-04-24T07:16:37;9.30;99.90
67752;DHT22;54551;51.068;5.826;2023-04-24T07:19:03;9.30;99.90
67752;DHT22;54551;51.068;5.826;2023-04-24T07:21:29;9.20;99.90
67752;DHT22;54551;51.068;5.826;2023-04-24T07:23:58;9.20;99.90
67752;DHT22;54551;51.068;5.826;2023-04-24T07:26:24;9.20;99.90
67752;DHT22;54551;51.068;5.826;2023-04-24T07:28:50;9.20;99.90
67752;DHT22;54551;51.068;5.826;2023-04-24T07:31:16;9.10;99.90
67752;DHT22;54551;51.068;5.826;2023-04-24T07:33:42;9.10;99.90
67752;DHT22;54551;51.068;5.826;2023-04-24T07:36:08;9.00;99.90
67752;DHT22;54551;51.068;5.826;2023-04-24T07:38:34;9.00;99.90
67752;DHT22;54551;51.068;5.826;2023-04-24T07:41:00;9.00;99.90
67752;DHT22;54551;51.068;5.826;2023-04-24T07:43:26;9.00;99.90
67752;DHT22;54551;51.068;5.826;2023-04-24T07:45:52;9.00;99.90
67752;DHT22;54551;51.068;5.826;2023-04-24T07:48:18;9.00;99.90
67752;DHT22;54551;51.068;5.826;2023-04-24T07:50:45;9.00;99.90
67752;DHT22;54551;51.068;5.826;2023-04-24T07:53:10;9.00;99.90
67752;DHT22;54551;51.068;5.826;2023-04-24T07:55:37;8.90;99.90
67752;DHT22;54551;51.068;5.826;2023-04-24T07:58:04;8.90;99.90
67752;DHT22;54551;51.068;5.826;2023-04-24T08:00:29;8.90;99.90
67752;DHT22;54551;51.068;5.826;2023-04-24T08:02:55;9.00;99.90
67752;DHT22;54551;51.068;5.826;2023-04-24T08:05:21;9.00;99.90
67752;DHT22;54551;51.068;5.826;2023-04-24T08:07:47;9.10;99.90
67752;DHT22;54551;51.068;5.826;2023-04-24T08:10:16;9.10;99.90
67752;DHT22;54551;51.068;5.826;2023-04-24T08:12:42;9.10;99.90
67752;DHT22;54551;51.068;5.826;2023-04-24T08:15:08;9.10;99.90
67752;DHT22;54551;51.068;5.826;2023-04-24T08:17:35;9.20;99.90
67752;DHT22;54551;51.068;5.826;2023-04-24T08:20:02;9.30;99.90
67752;DHT22;54551;51.068;5.826;2023-04-24T08:22:31;9.30;99.90
67752;DHT22;54551;51.068;5.826;2023-04-24T08:24:59;9.30;99.90
67752;DHT22;54551;51.068;5.826;2023-04-24T08:27:26;9.30;99.90
67752;DHT22;54551;51.068;5.826;2023-04-24T08:29:56;9.40;99.90
67752;DHT22;54551;51.068;5.826;2023-04-24T08:32:22;9.40;99.90
67752;DHT22;54551;51.068;5.826;2023-04-24T08:34:48;9.40;99.90
67752;DHT22;54551;51.068;5.826;2023-04-24T08:37:14;9.50;99.90
67752;DHT22;54551;51.068;5.826;2023-04-24T08:39:40;9.60;99.90
67752;DHT22;54551;51.068;5.826;2023-04-24T08:42:06;9.70;99.90
67752;DHT22;54551;51.068;5.826;2023-04-24T08:44:34;9.70;99.90
67752;DHT22;54551;51.068;5.826;2023-04-24T08:47:04;9.90;99.90
67752;DHT22;54551;51.068;5.826;2023-04-24T08:49:31;10.00;99.90
67752;DHT22;54551;51.068;5.826;2023-04-24T08:51:57;10.10;99.90
67752;DHT22;54551;51.068;5.826;2023-04-24T08:54:23;10.10;99.90
67752;DHT22;54551;51.068;5.826;2023-04-24T08:56:50;10.20;99.90
67752;DHT22;54551;51.068;5.826;2023-04-24T08:59:19;10.30;99.90
67752;DHT22;54551;51.068;5.826;2023-04-24T09:01:48;10.40;99.90
67752;DHT22;54551;51.068;5.826;2023-04-24T09:04:15;10.40;99.90
67752;DHT22;54551;51.068;5.826;2023-04-24T09:06:44;10.50;99.90
67752;DHT22;54551;51.068;5.826;2023-04-24T09:09:10;10.50;99.90
67752;DHT22;54551;51.068;5.826;2023-04-24T09:11:37;10.60;99.90
67752;DHT22;54551;51.068;5.826;2023-04-24T09:14:03;10.60;99.90
67752;DHT22;54551;51.068;5.826;2023-04-24T09:16:29;10.60;99.90
67752;DHT22;54551;51.068;5.826;2023-04-24T09:18:55;10.60;99.90
67752;DHT22;54551;51.068;5.826;2023-04-24T09:21:22;10.70;99.90
67752;DHT22;54551;51.068;5.826;2023-04-24T09:24:03;10.70;99.90
67752;DHT22;54551;51.068;5.826;2023-04-24T09:26:30;10.90;99.90
67752;DHT22;54551;51.068;5.826;2023-04-24T09:28:59;11.00;99.90
67752;DHT22;54551;51.068;5.826;2023-04-24T09:31:28;11.00;99.90
67752;DHT22;54551;51.068;5.826;2023-04-24T09:33:56;11.20;99.90
67752;DHT22;54551;51.068;5.826;2023-04-24T09:36:54;11.40;99.90
67752;DHT22;54551;51.068;5.826;2023-04-24T09:39:20;11.70;99.90
67752;DHT22;54551;51.068;5.826;2023-04-24T09:41:50;11.90;99.90
67752;DHT22;54551;51.068;5.826;2023-04-24T09:44:20;12.00;99.90
67752;DHT22;54551;51.068;5.826;2023-04-24T09:46:58;12.20;99.90
67752;DHT22;54551;51.068;5.826;2023-04-24T09:49:28;12.20;99.90
67752;DHT22;54551;51.068;5.826;2023-04-24T09:52:05;12.30;99.90
67752;DHT22;54551;51.068;5.826;2023-04-24T09:54:32;12.50;99.90
67752;DHT22;54551;51.068;5.826;2023-04-24T09:56:58;12.70;99.90
67752;DHT22;54551;51.068;5.826;2023-04-24T09:59:26;12.90;99.90
67752;DHT22;54551;51.068;5.826;2023-04-24T10:01:51;13.10;99.90
67752;DHT22;54551;51.068;5.826;2023-04-24T10:04:21;13.40;99.90
67752;DHT22;54551;51.068;5.826;2023-04-24T10:06:49;13.70;99.90
67752;DHT22;54551;51.068;5.826;2023-04-24T10:09:16;14.20;99.90
67752;DHT22;54551;51.068;5.826;2023-04-24T10:11:44;14.70;99.90
67752;DHT22;54551;51.068;5.826;2023-04-24T10:14:24;15.10;99.90
67752;DHT22;54551;51.068;5.826;2023-04-24T10:16:53;15.30;99.90
67752;DHT22;54551;51.068;5.826;2023-04-24T10:19:20;15.30;99.90
67752;DHT22;54551;51.068;5.826;2023-04-24T10:21:46;15.30;99.90
67752;DHT22;54551;51.068;5.826;2023-04-24T10:24:17;15.20;99.90
67752;DHT22;54551;51.068;5.826;2023-04-24T10:26:44;15.00;99.90
67752;DHT22;54551;51.068;5.826;2023-04-24T10:29:12;14.80;99.90
67752;DHT22;54551;51.068;5.826;2023-04-24T10:31:39;14.50;99.90
67752;DHT22;54551;51.068;5.826;2023-04-24T10:34:06;14.30;99.90
67752;DHT22;54551;51.068;5.826;2023-04-24T10:36:33;14.00;99.90
67752;DHT22;54551;51.068;5.826;2023-04-24T10:39:07;13.70;99.90
67752;DHT22;54551;51.068;5.826;2023-04-24T10:41:37;13.50;99.90
67752;DHT22;54551;51.068;5.826;2023-04-24T10:44:11;13.30;99.90
67752;DHT22;54551;51.068;5.826;2023-04-24T10:46:39;13.30;99.90
67752;DHT22;54551;51.068;5.826;2023-04-24T10:49:06;13.30;99.90
67752;DHT22;54551;51.068;5.826;2023-04-24T10:51:51;13.50;99.90
67752;DHT22;54551;51.068;5.826;2023-04-24T10:59:50;14.20;99.90
67752;DHT22;54551;51.068;5.826;2023-04-24T11:02:17;14.20;99.90
67752;DHT22;54551;51.068;5.826;2023-04-24T11:04:44;14.10;99.90
67752;DHT22;54551;51.068;5.826;2023-04-24T11:07:11;14.00;99.90
67752;DHT22;54551;51.068;5.826;2023-04-24T11:09:37;13.90;99.90
67752;DHT22;54551;51.068;5.826;2023-04-24T11:12:10;13.90;99.90
67752;DHT22;54551;51.068;5.826;2023-04-24T11:17:35;14.00;99.90
67752;DHT22;54551;51.068;5.826;2023-04-24T11:20:07;13.90;99.90
67752;DHT22;54551;51.068;5.826;2023-04-24T11:22:36;13.90;99.90
67752;DHT22;54551;51.068;5.826;2023-04-24T11:25:03;13.70;99.90
67752;DHT22;54551;51.068;5.826;2023-04-24T11:27:42;13.60;99.90
67752;DHT22;54551;51.068;5.826;2023-04-24T11:30:09;13.50;99.90
67752;DHT22;54551;51.068;5.826;2023-04-24T11:32:38;13.30;99.90
67752;DHT22;54551;51.068;5.826;2023-04-24T11:35:16;13.20;99.90
67752;DHT22;54551;51.068;5.826;2023-04-24T11:37:47;13.30;99.90
67752;DHT22;54551;51.068;5.826;2023-04-24T11:40:16;13.80;99.90
67752;DHT22;54551;51.068;5.826;2023-04-24T11:42:50;14.30;99.90
67752;DHT22;54551;51.068;5.826;2023-04-24T11:45:23;14.70;99.90
67752;DHT22;54551;51.068;5.826;2023-04-24T11:47:49;15.10;99.90
67752;DHT22;54551;51.068;5.826;2023-04-24T11:50:18;15.30;99.90
67752;DHT22;54551;51.068;5.826;2023-04-24T11:52:46;15.30;99.90
67752;DHT22;54551;51.068;5.826;2023-04-24T11:57:45;15.10;99.90
67752;DHT22;54551;51.068;5.826;2023-04-24T12:00:16;14.90;99.90
67752;DHT22;54551;51.068;5.826;2023-04-24T12:02:42;14.70;99.90
67752;DHT22;54551;51.068;5.826;2023-04-24T12:05:08;14.40;99.90
67752;DHT22;54551;51.068;5.826;2023-04-24T12:07:41;14.20;99.90
67752;DHT22;54551;51.068;5.826;2023-04-24T12:10:08;13.90;99.90
67752;DHT22;54551;51.068;5.826;2023-04-24T12:12:34;14.00;99.90
67752;DHT22;54551;51.068;5.826;2023-04-24T12:15:01;14.60;99.90
67752;DHT22;54551;51.068;5.826;2023-04-24T12:17:31;15.10;99.90
67752;DHT22;54551;51.068;5.826;2023-04-24T12:19:59;15.40;99.90
67752;DHT22;54551;51.068;5.826;2023-04-24T12:22:26;15.40;99.90
67752;DHT22;54551;51.068;5.826;2023-04-24T12:25:00;15.30;99.90
67752;DHT22;54551;51.068;5.826;2023-04-24T12:27:32;15.20;99.90
67752;DHT22;54551;51.068;5.826;2023-04-24T12:30:00;15.10;99.90
67752;DHT22;54551;51.068;5.826;2023-04-24T12:32:26;15.10;99.90
67752;DHT22;54551;51.068;5.826;2023-04-24T12:34:54;14.90;99.90
67752;DHT22;54551;51.068;5.826;2023-04-24T12:37:22;14.90;99.90
67752;DHT22;54551;51.068;5.826;2023-04-24T12:40:11;14.70;99.90
67752;DHT22;54551;51.068;5.826;2023-04-24T12:42:44;14.50;99.90
67752;DHT22;54551;51.068;5.826;2023-04-24T12:45:11;14.40;99.90
67752;DHT22;54551;51.068;5.826;2023-04-24T12:47:40;14.30;99.90
67752;DHT22;54551;51.068;5.826;2023-04-24T12:50:14;14.40;99.90
67752;DHT22;54551;51.068;5.826;2023-04-24T12:52:41;14.50;99.90
67752;DHT22;54551;51.068;5.826;2023-04-24T12:55:08;14.60;99.90
67752;DHT22;54551;51.068;5.826;2023-04-24T12:57:35;14.60;99.90
67752;DHT22;54551;51.068;5.826;2023-04-24T13:00:03;14.50;99.90
67752;DHT22;54551;51.068;5.826;2023-04-24T13:02:30;14.50;99.90
67752;DHT22;54551;51.068;5.826;2023-04-24T13:04:57;14.60;99.90
67752;DHT22;54551;51.068;5.826;2023-04-24T13:07:23;14.60;99.90
67752;DHT22;54551;51.068;5.826;2023-04-24T13:09:50;14.70;99.90
67752;DHT22;54551;51.068;5.826;2023-04-24T13:12:17;14.90;99.90
67752;DHT22;54551;51.068;5.826;2023-04-24T13:14:43;15.20;99.90
67752;DHT22;54551;51.068;5.826;2023-04-24T13:17:09;15.30;99.90
67752;DHT22;54551;51.068;5.826;2023-04-24T13:19:41;15.40;99.90
67752;DHT22;54551;51.068;5.826;2023-04-24T13:22:10;15.50;99.90
67752;DHT22;54551;51.068;5.826;2023-04-24T13:24:37;15.50;99.90
67752;DHT22;54551;51.068;5.826;2023-04-24T13:27:04;15.40;99.90
67752;DHT22;54551;51.068;5.826;2023-04-24T13:29:30;15.20;99.90
67752;DHT22;54551;51.068;5.826;2023-04-24T13:31:56;15.00;99.90
67752;DHT22;54551;51.068;5.826;2023-04-24T13:34:23;14.80;99.90
67752;DHT22;54551;51.068;5.826;2023-04-24T13:36:50;15.00;99.90
67752;DHT22;54551;51.068;5.826;2023-04-24T13:39:17;15.30;99.90
67752;DHT22;54551;51.068;5.826;2023-04-24T13:41:43;15.50;99.90
67752;DHT22;54551;51.068;5.826;2023-04-24T13:44:09;15.70;99.90
67752;DHT22;54551;51.068;5.826;2023-04-24T13:46:35;15.70;99.90
67752;DHT22;54551;51.068;5.826;2023-04-24T13:49:02;15.90;99.90
67752;DHT22;54551;51.068;5.826;2023-04-24T13:51:29;15.90;99.90
67752;DHT22;54551;51.068;5.826;2023-04-24T13:53:56;15.90;99.90
67752;DHT22;54551;51.068;5.826;2023-04-24T13:56:23;16.00;99.90
67752;DHT22;54551;51.068;5.826;2023-04-24T13:58:49;16.10;99.90
67752;DHT22;54551;51.068;5.826;2023-04-24T14:01:15;16.30;99.90
67752;DHT22;54551;51.068;5.826;2023-04-24T14:03:42;16.50;99.90
67752;DHT22;54551;51.068;5.826;2023-04-24T14:06:09;16.70;99.90
67752;DHT22;54551;51.068;5.826;2023-04-24T14:08:35;17.00;99.90
67752;DHT22;54551;51.068;5.826;2023-04-24T14:11:00;17.20;99.90
67752;DHT22;54551;51.068;5.826;2023-04-24T14:13:27;17.70;99.90
67752;DHT22;54551;51.068;5.826;2023-04-24T14:15:53;18.00;99.90
67752;DHT22;54551;51.068;5.826;2023-04-24T14:18:19;18.00;99.90
67752;DHT22;54551;51.068;5.826;2023-04-24T14:20:45;17.80;99.90
67752;DHT22;54551;51.068;5.826;2023-04-24T14:23:11;17.70;99.90
67752;DHT22;54551;51.068;5.826;2023-04-24T14:25:37;17.60;99.90
67752;DHT22;54551;51.068;5.826;2023-04-24T14:28:03;17.40;99.90
67752;DHT22;54551;51.068;5.826;2023-04-24T14:30:29;17.40;99.90
67752;DHT22;54551;51.068;5.826;2023-04-24T14:32:56;17.20;99.90
67752;DHT22;54551;51.068;5.826;2023-04-24T14:35:22;17.20;99.90
67752;DHT22;54551;51.068;5.826;2023-04-24T14:37:48;17.10;99.90
67752;DHT22;54551;51.068;5.826;2023-04-24T14:40:14;16.90;99.90
67752;DHT22;54551;51.068;5.826;2023-04-24T14:42:40;16.50;99.90
67752;DHT22;54551;51.068;5.826;2023-04-24T14:45:07;16.40;99.90
67752;DHT22;54551;51.068;5.826;2023-04-24T14:47:33;16.30;99.90
67752;DHT22;54551;51.068;5.826;2023-04-24T14:49:59;16.20;99.90
67752;DHT22;54551;51.068;5.826;2023-04-24T14:52:25;16.10;99.90
67752;DHT22;54551;51.068;5.826;2023-04-24T14:54:51;16.00;99.90
67752;DHT22;54551;51.068;5.826;2023-04-24T14:57:17;15.90;99.90
67752;DHT22;54551;51.068;5.826;2023-04-24T14:59:43;15.90;99.90
67752;DHT22;54551;51.068;5.826;2023-04-24T15:02:09;15.80;99.90
67752;DHT22;54551;51.068;5.826;2023-04-24T15:04:35;15.80;99.90
67752;DHT22;54551;51.068;5.826;2023-04-24T15:07:01;15.70;99.90
67752;DHT22;54551;51.068;5.826;2023-04-24T15:09:27;15.60;99.90
67752;DHT22;54551;51.068;5.826;2023-04-24T15:11:53;15.60;99.90
67752;DHT22;54551;51.068;5.826;2023-04-24T15:14:19;15.70;99.90
67752;DHT22;54551;51.068;5.826;2023-04-24T15:16:45;15.70;99.90
67752;DHT22;54551;51.068;5.826;2023-04-24T15:19:11;15.70;99.90
67752;DHT22;54551;51.068;5.826;2023-04-24T15:21:37;15.70;99.90
67752;DHT22;54551;51.068;5.826;2023-04-24T15:24:04;15.60;99.90
67752;DHT22;54551;51.068;5.826;2023-04-24T15:26:30;15.60;99.90
67752;DHT22;54551;51.068;5.826;2023-04-24T15:28:57;15.50;99.90
67752;DHT22;54551;51.068;5.826;2023-04-24T15:31:22;15.50;99.90
67752;DHT22;54551;51.068;5.826;2023-04-24T15:33:49;15.40;99.90
67752;DHT22;54551;51.068;5.826;2023-04-24T15:36:16;15.50;99.90
67752;DHT22;54551;51.068;5.826;2023-04-24T15:38:43;15.30;99.90
67752;DHT22;54551;51.068;5.826;2023-04-24T15:41:11;15.20;99.90
67752;DHT22;54551;51.068;5.826;2023-04-24T15:43:37;15.10;99.90
67752;DHT22;54551;51.068;5.826;2023-04-24T15:46:04;15.00;99.90
67752;DHT22;54551;51.068;5.826;2023-04-24T15:48:31;15.00;99.90